createdAt,value
2022-10-20T00:01:54.132Z,16.38
2022-10-20T00:05:59.852Z,16.00
2022-10-20T00:10:01.298Z,17.88
2022-10-20T00:14:03.359Z,16.38
2022-10-20T00:18:04.839Z,14.20
2022-10-20T00:22:07.933Z,17.13
2022-10-20T00:26:14.647Z,14.07
2022-10-20T00:30:16.748Z,15.65
2022-10-20T00:34:18.202Z,15.52
2022-10-20T00:38:19.878Z,19.50
2022-10-20T00:42:22.715Z,18.42
2022-10-20T00:46:28.984Z,16.20
2022-10-20T00:50:39.404Z,16.70
2022-10-20T00:54:41.128Z,17.00
2022-10-20T00:58:43.258Z,13.68
2022-10-20T01:02:45.468Z,17.63
2022-10-20T01:06:46.945Z,16.15
2022-10-20T01:11:06.983Z,15.38
2022-10-20T01:15:58.184Z,14.32
2022-10-20T01:20:05.403Z,16.00
2022-10-20T01:24:18.957Z,16.70
2022-10-20T01:28:25.889Z,16.65
2022-10-20T01:32:32.839Z,16.53
2022-10-20T01:36:37.695Z,18.53
2022-10-20T01:40:57.637Z,16.58
2022-10-20T01:45:01.972Z,14.93
2022-10-20T01:49:04.342Z,14.40
2022-10-20T01:53:06.053Z,18.00
2022-10-20T01:57:46.590Z,15.77
2022-10-20T02:02:04.101Z,16.77
2022-10-20T02:06:15.316Z,14.07
2022-10-20T02:10:25.413Z,18.27
2022-10-20T02:14:27.126Z,16.15
2022-10-20T02:18:42.039Z,15.40
2022-10-20T02:22:47.880Z,15.00
2022-10-20T02:26:50.364Z,16.08
2022-10-20T02:30:52.284Z,16.95
2022-10-20T02:34:53.811Z,16.83
2022-10-20T02:38:55.552Z,15.65
2022-10-20T02:42:57.003Z,19.02
2022-10-20T02:47:00.188Z,14.85
2022-10-20T02:51:01.700Z,20.65
2022-10-20T02:55:03.404Z,14.68
2022-10-20T02:59:04.840Z,16.15
2022-10-20T03:03:06.395Z,17.60
2022-10-20T03:07:08.552Z,16.13
2022-10-20T03:11:11.422Z,16.05
2022-10-20T03:15:13.376Z,16.80
2022-10-20T03:19:14.870Z,17.52
2022-10-20T03:23:17.832Z,15.90
2022-10-20T03:27:21.483Z,22.33
2022-10-20T03:31:26.156Z,15.65
2022-10-20T03:35:27.873Z,16.05
2022-10-20T03:39:29.249Z,16.60
2022-10-20T03:43:30.768Z,17.15
2022-10-20T03:47:32.684Z,16.65
2022-10-20T03:51:34.631Z,14.70
2022-10-20T03:55:37.536Z,14.60
2022-10-20T03:59:41.988Z,16.05
2022-10-20T04:03:44.964Z,18.30
2022-10-20T04:07:47.297Z,14.25
2022-10-20T04:11:48.787Z,16.90
2022-10-20T04:15:50.247Z,17.45
2022-10-20T04:19:52.194Z,19.50
2022-10-20T04:23:53.894Z,23.17
2022-10-20T04:27:55.710Z,25.27
2022-10-20T04:31:57.263Z,21.55
2022-10-20T04:36:10.112Z,20.52
2022-10-20T04:40:11.878Z,22.83
2022-10-20T04:44:14.174Z,28.92
2022-10-20T04:48:16.474Z,24.48
2022-10-20T04:52:18.238Z,22.05
2022-10-20T04:56:21.697Z,21.35
2022-10-20T05:00:23.308Z,26.77
2022-10-20T05:04:24.919Z,28.55
2022-10-20T05:08:26.831Z,25.52
2022-10-20T05:12:28.435Z,24.42
2022-10-20T05:16:29.901Z,27.73
2022-10-20T05:20:36.832Z,26.15
2022-10-20T05:24:42.874Z,22.73
2022-10-20T05:28:47.495Z,26.75
2022-10-20T05:32:49.209Z,29.58
2022-10-20T05:36:53.991Z,37.47
2022-10-20T05:40:56.055Z,34.97
2022-10-20T05:45:16.384Z,30.83
2022-10-20T05:49:27.556Z,29.30
2022-10-20T05:53:42.373Z,30.42
2022-10-20T06:03:06.451Z,29.95
2022-10-20T06:07:13.286Z,29.60
2022-10-20T06:11:15.374Z,33.85
2022-10-20T06:15:17.812Z,28.70
2022-10-20T06:19:20.331Z,31.70
2022-10-20T06:23:21.802Z,32.35
2022-10-20T06:27:23.365Z,30.27
2022-10-20T06:31:28.394Z,31.90
2022-10-20T06:35:31.427Z,24.58
2022-10-20T06:39:33.053Z,21.50
2022-10-20T06:43:34.758Z,29.60
2022-10-20T06:47:36.939Z,21.92
2022-10-20T06:51:38.846Z,25.50
2022-10-20T06:55:40.763Z,30.25
2022-10-20T06:59:44.263Z,31.17
2022-10-20T07:03:47.672Z,23.75
2022-10-20T07:07:52.993Z,26.15
2022-10-20T07:11:54.571Z,25.33
2022-10-20T07:15:58.748Z,26.10
2022-10-20T07:20:00.332Z,26.55
2022-10-20T07:24:02.071Z,27.90
2022-10-20T07:28:03.576Z,27.13
2022-10-20T07:32:08.192Z,25.92
2022-10-20T07:36:15.726Z,26.95
2022-10-20T07:44:32.059Z,23.33
2022-10-20T07:48:33.843Z,24.88
2022-10-20T07:52:35.902Z,26.50
2022-10-20T07:56:44.777Z,24.15
2022-10-20T08:00:46.348Z,21.65
2022-10-20T08:04:50.790Z,23.27
2022-10-20T08:09:00.756Z,19.95
2022-10-20T08:13:02.230Z,22.83
2022-10-20T08:17:07.126Z,15.65
2022-10-20T08:21:23.810Z,22.20
2022-10-20T08:25:29.265Z,18.67
2022-10-20T08:29:30.947Z,19.75
2022-10-20T08:33:35.897Z,19.90
2022-10-20T08:37:38.332Z,20.38
2022-10-20T08:42:06.347Z,16.08
2022-10-20T08:46:04.672Z,20.35
2022-10-20T08:50:09.945Z,20.70
2022-10-20T08:54:58.435Z,18.95
2022-10-20T08:59:01.134Z,14.52
2022-10-20T09:03:24.550Z,14.88
2022-10-20T09:07:34.712Z,14.88
2022-10-20T09:11:40.299Z,12.18
2022-10-20T09:15:41.809Z,16.40
2022-10-20T09:19:49.920Z,21.48
2022-10-20T09:24:02.139Z,13.57
2022-10-20T09:28:03.770Z,10.57
2022-10-20T09:32:45.526Z,9.48
2022-10-20T09:36:43.853Z,10.32
2022-10-20T09:40:55.136Z,8.80
2022-10-20T09:44:59.097Z,10.38
2022-10-20T09:49:00.538Z,10.02
2022-10-20T09:53:05.924Z,9.57
2022-10-20T09:57:09.584Z,12.73
2022-10-20T10:01:16.862Z,8.35
2022-10-20T10:05:20.657Z,8.15
2022-10-20T10:09:28.271Z,9.20
2022-10-20T10:17:37.001Z,8.20
2022-10-20T10:22:07.128Z,8.77
2022-10-20T10:26:44.464Z,9.60
2022-10-20T10:35:08.256Z,10.07
2022-10-20T10:39:15.006Z,10.55
2022-10-20T10:43:31.740Z,8.30
2022-10-20T10:47:52.003Z,10.13
2022-10-20T10:52:18.666Z,7.50
2022-10-20T10:56:29.266Z,8.10
2022-10-20T11:00:36.701Z,8.50
2022-10-20T11:04:44.764Z,8.45
2022-10-20T11:08:58.106Z,21.67
2022-10-20T11:13:06.371Z,12.85
2022-10-20T11:17:16.295Z,9.48
2022-10-20T11:21:39.860Z,10.90
2022-10-20T11:25:48.460Z,6.88
2022-10-20T11:29:57.994Z,7.57
2022-10-20T11:34:22.335Z,19.00
2022-10-20T11:38:42.402Z,12.35
2022-10-20T11:43:15.063Z,8.63
2022-10-20T11:47:37.524Z,9.02
2022-10-20T11:51:51.294Z,13.32
2022-10-20T11:56:03.099Z,8.75
2022-10-20T12:00:27.190Z,9.27
2022-10-20T12:04:42.335Z,9.05
2022-10-20T12:13:44.671Z,9.82
2022-10-20T12:17:46.715Z,11.05
2022-10-20T12:22:21.200Z,7.30
2022-10-20T12:26:43.908Z,8.02
2022-10-20T12:30:56.215Z,8.68
2022-10-20T12:35:21.422Z,7.28
2022-10-20T12:39:25.110Z,7.80
2022-10-20T12:43:33.446Z,8.38
2022-10-20T12:47:37.057Z,6.38
2022-10-20T12:51:49.203Z,8.80
2022-10-20T12:56:11.122Z,8.82
2022-10-20T13:00:40.676Z,7.55
2022-10-20T13:04:55.248Z,11.00
2022-10-20T13:09:11.403Z,14.13
2022-10-20T13:13:12.862Z,11.35
2022-10-20T13:17:24.243Z,10.00
2022-10-20T13:21:33.744Z,10.45
2022-10-20T13:25:53.822Z,12.57
2022-10-20T13:29:55.392Z,9.57
2022-10-20T13:34:15.592Z,11.48
2022-10-20T13:38:22.563Z,11.73
2022-10-20T13:42:51.862Z,14.23
2022-10-20T13:47:03.020Z,12.57
2022-10-20T13:51:19.804Z,10.82
2022-10-20T13:55:25.556Z,15.65
2022-10-20T13:59:29.347Z,10.98
2022-10-20T14:03:33.336Z,12.88
2022-10-20T14:07:37.452Z,14.98
2022-10-20T14:11:39.957Z,12.63
2022-10-20T14:15:46.095Z,12.50
2022-10-20T14:19:51.381Z,11.55
2022-10-20T14:23:53.063Z,13.70
2022-10-20T14:27:56.164Z,10.35
2022-10-20T14:31:58.347Z,9.90
2022-10-20T14:36:02.628Z,18.48
2022-10-20T14:40:42.995Z,10.57
2022-10-20T14:44:44.607Z,11.52
2022-10-20T14:48:49.830Z,12.73
2022-10-20T14:52:54.164Z,15.32
2022-10-20T14:56:58.851Z,12.43
2022-10-20T15:01:29.143Z,11.90
2022-10-20T15:05:42.835Z,12.73
2022-10-20T15:09:49.068Z,14.85
2022-10-20T15:13:55.785Z,15.18
2022-10-20T15:18:06.886Z,14.65
2022-10-20T15:22:10.939Z,11.15
2022-10-20T15:26:13.951Z,9.88
2022-10-20T15:30:22.754Z,12.43
2022-10-20T15:34:25.655Z,15.07
2022-10-20T15:38:28.981Z,30.38
2022-10-20T15:42:32.219Z,13.73
2022-10-20T15:46:44.774Z,19.30
2022-10-20T15:50:49.743Z,15.73
2022-10-20T15:54:51.204Z,19.45
2022-10-20T15:58:52.705Z,15.77
2022-10-20T16:02:54.680Z,13.70
2022-10-20T16:12:11.601Z,13.45
2022-10-20T16:20:54.821Z,12.80
2022-10-20T16:24:56.296Z,15.63
2022-10-20T16:29:04.353Z,17.15
2022-10-20T16:33:10.025Z,13.85
2022-10-20T16:37:11.537Z,12.45
2022-10-20T16:41:14.713Z,16.02
2022-10-20T16:45:20.258Z,15.00
2022-10-20T16:49:21.763Z,16.23
2022-10-20T16:53:24.053Z,16.88
2022-10-20T16:57:26.858Z,11.98
2022-10-20T17:01:28.726Z,14.02
2022-10-20T17:05:32.750Z,17.67
2022-10-20T17:09:34.712Z,19.30
2022-10-20T17:13:37.173Z,30.60
2022-10-20T17:17:39.238Z,20.48
2022-10-20T17:21:40.984Z,27.65
2022-10-20T17:25:42.697Z,18.25
2022-10-20T17:29:44.243Z,20.58
2022-10-20T17:33:46.495Z,20.75
2022-10-20T17:37:48.046Z,26.00
2022-10-20T17:41:49.699Z,18.15
2022-10-20T17:45:58.477Z,21.33
2022-10-20T17:49:59.924Z,18.15
2022-10-20T17:54:09.941Z,18.55
2022-10-20T17:58:11.371Z,18.10
2022-10-20T18:02:16.993Z,13.80
2022-10-20T18:06:27.051Z,14.93
2022-10-20T18:11:02.678Z,16.45
2022-10-20T18:15:05.207Z,15.50
2022-10-20T18:19:08.614Z,24.08
2022-10-20T18:23:10.470Z,17.45
2022-10-20T18:27:12.546Z,23.17
2022-10-20T18:31:20.592Z,13.13
2022-10-20T18:35:23.754Z,17.88
2022-10-20T18:39:26.140Z,19.67
2022-10-20T18:43:27.890Z,22.63
2022-10-20T18:47:29.340Z,20.23
2022-10-20T18:51:31.919Z,26.02
2022-10-20T18:55:33.745Z,24.90
2022-10-20T18:59:35.600Z,21.52
2022-10-20T19:03:37.696Z,21.15
2022-10-20T19:07:40.073Z,20.50
2022-10-20T19:11:42.775Z,21.80
2022-10-20T19:15:44.427Z,19.92
2022-10-20T19:19:46.731Z,24.08
2022-10-20T19:23:51.448Z,18.13
2022-10-20T19:27:54.447Z,17.30
2022-10-20T19:31:58.613Z,22.75
2022-10-20T19:36:00.255Z,23.45
2022-10-20T19:40:01.952Z,19.08
2022-10-20T19:44:03.593Z,19.23
2022-10-20T19:48:05.535Z,15.02
2022-10-20T19:52:09.245Z,22.23
2022-10-20T19:56:12.269Z,18.02
2022-10-20T20:00:16.582Z,22.15
2022-10-20T20:04:18.508Z,23.75
2022-10-20T20:08:20.458Z,20.05
2022-10-20T20:12:21.953Z,15.68
2022-10-20T20:16:24.332Z,19.25
2022-10-20T20:20:25.804Z,18.08
2022-10-20T20:24:27.292Z,20.73
2022-10-20T20:28:28.849Z,19.85
2022-10-20T20:32:30.747Z,21.88
2022-10-20T20:36:32.748Z,33.25
2022-10-20T20:40:34.212Z,29.40
2022-10-20T20:44:36.320Z,21.00
2022-10-20T20:48:38.208Z,26.77
2022-10-20T20:52:39.855Z,27.90
2022-10-20T20:56:42.835Z,21.45
2022-10-20T21:00:44.333Z,23.45
2022-10-20T21:04:46.520Z,21.35
2022-10-20T21:08:48.935Z,23.48
2022-10-20T21:12:50.574Z,23.58
2022-10-20T21:16:52.225Z,25.45
2022-10-20T21:20:53.809Z,26.25
2022-10-20T21:24:56.566Z,29.60
2022-10-20T21:28:58.514Z,25.30
2022-10-20T21:33:00.341Z,23.08
2022-10-20T21:37:01.731Z,27.40
2022-10-20T21:41:08.720Z,22.83
2022-10-20T21:45:13.341Z,24.43
2022-10-20T21:49:25.531Z,21.35
2022-10-20T21:53:27.035Z,22.77
2022-10-20T21:57:28.510Z,23.25
2022-10-20T22:01:30.349Z,21.38
2022-10-20T22:05:34.385Z,26.05
2022-10-20T22:09:36.173Z,25.08
2022-10-20T22:13:37.982Z,24.98
2022-10-20T22:17:40.469Z,19.63
2022-10-20T22:21:44.857Z,19.88
2022-10-20T22:25:47.022Z,17.48
2022-10-20T22:29:49.147Z,19.88
2022-10-20T22:33:56.036Z,19.95
2022-10-20T22:37:59.239Z,26.97
2022-10-20T22:42:01.072Z,13.93
2022-10-20T22:46:03.293Z,16.35
2022-10-20T22:50:06.105Z,16.80
2022-10-20T22:54:08.264Z,13.80
2022-10-20T22:58:10.105Z,19.25
2022-10-20T23:02:12.429Z,19.25
2022-10-20T23:06:22.858Z,20.52
2022-10-20T23:10:27.287Z,18.52
2022-10-20T23:14:30.225Z,17.33
2022-10-20T23:18:31.728Z,18.60
2022-10-20T23:22:34.509Z,14.75
2022-10-20T23:26:36.327Z,19.27
2022-10-20T23:30:37.794Z,16.80
2022-10-20T23:34:41.427Z,15.40
2022-10-20T23:38:43.400Z,13.55
2022-10-20T23:42:44.852Z,12.88
2022-10-20T23:46:47.010Z,13.02
2022-10-20T23:50:48.476Z,13.98
2022-10-20T23:54:59.070Z,17.35
2022-10-20T23:59:00.510Z,13.45
